createdAt,value
2023-04-30T00:01:41.689Z,100062.70
2023-04-30T00:04:09.355Z,100061.63
2023-04-30T00:06:36.945Z,100065.74
2023-04-30T00:09:04.450Z,100065.41
2023-04-30T00:11:32.012Z,100070.13
2023-04-30T00:13:59.522Z,100064.24
2023-04-30T00:16:27.064Z,100066.76
2023-04-30T00:18:54.585Z,100069.45
2023-04-30T00:21:22.166Z,100072.33
2023-04-30T00:23:50.177Z,100075.36
2023-04-30T00:26:17.704Z,100080.98
2023-04-30T00:28:45.400Z,100081.52
2023-04-30T00:31:12.849Z,100080.55
2023-04-30T00:33:40.493Z,100082.17
2023-04-30T00:36:07.993Z,100086.75
2023-04-30T00:38:35.602Z,100090.70
2023-04-30T00:41:03.309Z,100091.16
2023-04-30T00:43:31.607Z,100092.89
2023-04-30T00:45:59.172Z,100096.35
2023-04-30T00:48:27.887Z,100097.34
2023-04-30T00:50:56.169Z,100096.77
2023-04-30T00:53:23.854Z,100097.38
2023-04-30T00:55:51.927Z,100102.53
2023-04-30T00:58:21.166Z,100108.58
2023-04-30T01:00:50.678Z,100111.61
2023-04-30T01:03:18.736Z,100115.16
2023-04-30T01:05:46.459Z,100121.84
2023-04-30T01:08:14.075Z,100121.90
2023-04-30T01:10:49.237Z,100126.15
2023-04-30T01:13:35.765Z,100128.92
2023-04-30T01:16:31.577Z,100126.98
2023-04-30T01:19:05.121Z,100128.53
2023-04-30T01:21:33.919Z,100129.08
2023-04-30T01:24:01.452Z,100126.32
2023-04-30T01:27:01.582Z,100129.99
2023-04-30T01:29:30.327Z,100135.42
2023-04-30T01:31:57.895Z,100133.27
2023-04-30T01:34:25.626Z,100134.42
2023-04-30T01:37:19.941Z,100136.10
2023-04-30T01:40:04.416Z,100138.63
2023-04-30T01:43:03.843Z,100138.02
2023-04-30T01:45:39.672Z,100141.75
2023-04-30T01:48:16.192Z,100145.16
2023-04-30T01:50:53.895Z,100151.86
2023-04-30T01:53:27.612Z,100152.96
2023-04-30T01:56:02.132Z,100157.86
2023-04-30T01:58:31.909Z,100162.55
2023-04-30T02:00:59.423Z,100162.24
2023-04-30T02:03:27.355Z,100166.06
2023-04-30T02:05:55.314Z,100169.71
2023-04-30T02:08:22.866Z,100169.88
2023-04-30T02:10:50.620Z,100171.11
2023-04-30T02:13:18.139Z,100173.56
2023-04-30T02:15:45.606Z,100173.14
2023-04-30T02:18:13.224Z,100176.81
2023-04-30T02:20:40.710Z,100177.14
2023-04-30T02:23:10.198Z,100179.34
2023-04-30T02:25:38.577Z,100179.85
2023-04-30T02:28:06.107Z,100182.56
2023-04-30T02:30:33.645Z,100182.67
2023-04-30T02:33:02.572Z,100186.28
2023-04-30T02:35:30.295Z,100186.23
2023-04-30T02:37:57.794Z,100189.86
2023-04-30T02:40:25.344Z,100191.59
2023-04-30T02:42:54.904Z,100200.61
2023-04-30T02:45:22.481Z,100202.66
2023-04-30T02:47:51.630Z,100202.61
2023-04-30T02:50:19.341Z,100207.75
2023-04-30T02:52:49.684Z,100211.66
2023-04-30T02:55:17.345Z,100211.39
2023-04-30T02:57:44.843Z,100212.48
2023-04-30T03:00:13.327Z,100216.20
2023-04-30T03:02:42.053Z,100215.83
2023-04-30T03:05:10.252Z,100217.13
2023-04-30T03:07:38.158Z,100216.69
2023-04-30T03:10:06.896Z,100219.38
2023-04-30T03:12:34.389Z,100220.31
2023-04-30T03:15:01.900Z,100228.33
2023-04-30T03:17:29.482Z,100227.88
2023-04-30T03:19:57.194Z,100228.46
2023-04-30T03:22:26.669Z,100232.17
2023-04-30T03:24:55.678Z,100233.96
2023-04-30T03:27:23.299Z,100237.30
2023-04-30T03:29:50.859Z,100242.35
2023-04-30T03:32:18.334Z,100244.12
2023-04-30T03:34:46.209Z,100247.27
2023-04-30T03:37:13.848Z,100248.00
2023-04-30T03:39:41.930Z,100247.70
2023-04-30T03:42:09.471Z,100253.99
2023-04-30T03:44:38.918Z,100258.70
2023-04-30T03:47:06.510Z,100262.71
2023-04-30T03:49:34.437Z,100264.84
2023-04-30T03:52:02.642Z,100264.70
2023-04-30T03:54:33.953Z,100271.64
2023-04-30T03:57:05.712Z,100269.77
2023-04-30T03:59:33.769Z,100277.76
2023-04-30T04:02:01.883Z,100279.85
2023-04-30T04:04:30.374Z,100280.08
2023-04-30T04:06:58.189Z,100288.38
2023-04-30T04:09:25.653Z,100295.98
2023-04-30T04:11:53.234Z,100300.32
2023-04-30T04:14:20.728Z,100311.06
2023-04-30T04:16:48.252Z,100311.23
2023-04-30T04:19:15.752Z,100312.10
2023-04-30T04:21:43.285Z,100318.68
2023-04-30T04:24:11.270Z,100319.04
2023-04-30T04:26:38.741Z,100327.31
2023-04-30T04:29:06.334Z,100327.14
2023-04-30T04:31:34.199Z,100330.77
2023-04-30T04:34:03.316Z,100333.34
2023-04-30T04:36:31.918Z,100335.23
2023-04-30T04:39:01.948Z,100339.03
2023-04-30T04:41:33.423Z,100340.05
2023-04-30T04:44:04.480Z,100346.11
2023-04-30T04:46:32.730Z,100345.21
2023-04-30T04:49:00.419Z,100349.88
2023-04-30T04:51:27.996Z,100351.41
2023-04-30T04:53:55.610Z,100353.27
2023-04-30T04:56:23.135Z,100356.17
2023-04-30T04:58:50.714Z,100357.52
2023-04-30T05:01:18.425Z,100359.54
2023-04-30T05:03:46.067Z,100362.94
2023-04-30T05:06:14.031Z,100367.20
2023-04-30T05:08:41.850Z,100369.09
2023-04-30T05:11:09.465Z,100373.04
2023-04-30T05:13:36.964Z,100374.20
2023-04-30T05:16:04.922Z,100374.88
2023-04-30T05:18:32.437Z,100379.35
2023-04-30T05:20:59.990Z,100381.56
2023-04-30T05:23:28.435Z,100386.18
2023-04-30T05:25:57.059Z,100385.96
2023-04-30T05:28:24.619Z,100389.91
2023-04-30T05:30:52.249Z,100394.58
2023-04-30T05:33:19.875Z,100398.35
2023-04-30T05:35:47.423Z,100403.65
2023-04-30T05:38:14.880Z,100409.45
2023-04-30T05:40:42.482Z,100412.32
2023-04-30T05:43:09.964Z,100413.67
2023-04-30T05:45:37.493Z,100413.77
2023-04-30T05:48:05.200Z,100416.46
2023-04-30T05:50:33.435Z,100414.50
2023-04-30T05:53:00.933Z,100417.76
2023-04-30T05:55:28.391Z,100415.45
2023-04-30T05:57:55.914Z,100419.87
2023-04-30T06:00:23.483Z,100421.55
2023-04-30T06:02:51.219Z,100426.50
2023-04-30T06:05:19.007Z,100429.58
2023-04-30T06:07:46.541Z,100435.59
2023-04-30T06:10:14.096Z,100438.62
2023-04-30T06:12:41.653Z,100439.75
2023-04-30T06:15:09.793Z,100439.66
2023-04-30T06:17:37.424Z,100444.05
2023-04-30T06:20:07.257Z,100446.34
2023-04-30T06:22:34.915Z,100450.72
2023-04-30T06:25:03.354Z,100451.48
2023-04-30T06:27:32.653Z,100453.60
2023-04-30T06:30:01.239Z,100462.30
2023-04-30T06:32:28.792Z,100460.14
2023-04-30T06:34:56.358Z,100461.27
2023-04-30T06:37:23.917Z,100460.48
2023-04-30T06:39:51.734Z,100467.48
2023-04-30T06:42:19.242Z,100472.64
2023-04-30T06:44:47.245Z,100471.94
2023-04-30T06:47:15.007Z,100472.84
2023-04-30T06:49:42.536Z,100460.45
2023-04-30T06:52:10.177Z,100467.12
2023-04-30T06:54:37.630Z,100465.30
2023-04-30T06:57:09.207Z,100469.44
2023-04-30T06:59:36.714Z,100473.92
2023-04-30T07:02:04.233Z,100474.96
2023-04-30T07:04:31.819Z,100471.99
2023-04-30T07:07:02.756Z,100475.55
2023-04-30T07:09:30.618Z,100475.48
2023-04-30T07:11:58.705Z,100481.77
2023-04-30T07:14:26.688Z,100483.04
2023-04-30T07:16:54.305Z,100485.04
2023-04-30T07:19:23.589Z,100484.77
2023-04-30T07:21:51.505Z,100493.56
2023-04-30T07:24:19.056Z,100498.15
2023-04-30T07:26:46.535Z,100496.02
2023-04-30T07:29:14.012Z,100491.42
2023-04-30T07:31:41.585Z,100495.15
2023-04-30T07:34:09.600Z,100494.34
2023-04-30T07:36:39.932Z,100491.25
2023-04-30T07:39:08.061Z,100494.66
2023-04-30T07:41:35.892Z,100495.61
2023-04-30T07:44:03.481Z,100497.18
2023-04-30T07:46:31.216Z,100495.12
2023-04-30T07:48:59.153Z,100502.96
2023-04-30T07:51:27.244Z,100503.73
2023-04-30T07:53:55.483Z,100509.03
2023-04-30T07:56:22.938Z,100505.31
2023-04-30T07:58:50.427Z,100507.88
2023-04-30T08:01:17.979Z,100513.06
2023-04-30T08:03:46.638Z,100514.66
2023-04-30T08:06:15.786Z,100512.05
2023-04-30T08:08:43.870Z,100514.81
2023-04-30T08:11:12.611Z,100518.35
2023-04-30T08:13:41.888Z,100516.98
2023-04-30T08:16:09.697Z,100519.83
2023-04-30T08:18:39.019Z,100522.03
2023-04-30T08:21:06.619Z,100521.88
2023-04-30T08:23:34.122Z,100521.89
2023-04-30T08:26:01.624Z,100525.78
2023-04-30T08:28:29.105Z,100522.89
2023-04-30T08:30:56.818Z,100521.74
2023-04-30T08:33:24.488Z,100521.67
2023-04-30T08:35:54.176Z,100522.45
2023-04-30T08:38:23.844Z,100523.84
2023-04-30T08:41:20.374Z,100523.67
2023-04-30T08:43:53.812Z,100522.09
2023-04-30T08:46:24.401Z,100522.67
2023-04-30T08:48:52.259Z,100526.75
2023-04-30T08:51:21.962Z,100531.65
2023-04-30T08:53:51.439Z,100536.65
2023-04-30T08:56:19.944Z,100533.77
2023-04-30T08:58:47.475Z,100537.54
2023-04-30T09:01:16.428Z,100535.90
2023-04-30T09:03:44.207Z,100534.19
2023-04-30T09:06:16.042Z,100536.27
2023-04-30T09:08:49.951Z,100540.33
2023-04-30T09:11:33.450Z,100545.20
2023-04-30T09:14:02.497Z,100545.04
2023-04-30T09:16:45.184Z,100548.65
2023-04-30T09:19:30.071Z,100547.36
2023-04-30T09:21:57.995Z,100549.20
2023-04-30T09:24:25.641Z,100549.71
2023-04-30T09:26:53.595Z,100546.27
2023-04-30T09:29:21.276Z,100549.25
2023-04-30T09:31:48.917Z,100551.14
2023-04-30T09:34:16.653Z,100546.77
2023-04-30T09:37:00.296Z,100543.98
2023-04-30T09:39:28.315Z,100547.37
2023-04-30T09:42:09.380Z,100553.42
2023-04-30T09:44:39.408Z,100553.92
2023-04-30T09:47:14.745Z,100554.66
2023-04-30T09:49:46.112Z,100549.92
2023-04-30T09:52:16.054Z,100545.45
2023-04-30T09:54:45.245Z,100549.67
2023-04-30T09:57:17.067Z,100544.55
2023-04-30T09:59:46.653Z,100545.88
2023-04-30T10:02:18.247Z,100547.68
2023-04-30T10:04:54.276Z,100546.48
2023-04-30T10:07:26.977Z,100550.30
2023-04-30T10:10:02.899Z,100543.42
2023-04-30T10:12:46.224Z,100534.71
2023-04-30T10:15:39.253Z,100532.29
2023-04-30T10:18:18.832Z,100536.12
2023-04-30T10:20:48.915Z,100538.35
2023-04-30T10:23:17.179Z,100534.31
2023-04-30T10:25:44.744Z,100531.36
2023-04-30T10:28:12.932Z,100531.51
2023-04-30T10:30:43.357Z,100535.71
2023-04-30T10:33:34.665Z,100532.27
2023-04-30T10:36:06.545Z,100532.96
2023-04-30T10:38:36.044Z,100528.69
2023-04-30T10:41:07.189Z,100533.01
2023-04-30T10:43:37.681Z,100531.39
2023-04-30T10:46:05.531Z,100535.73
2023-04-30T10:48:35.443Z,100534.86
2023-04-30T10:51:03.704Z,100538.14
2023-04-30T10:53:32.303Z,100534.28
2023-04-30T10:56:09.160Z,100534.40
2023-04-30T10:58:39.504Z,100537.02
2023-04-30T11:01:12.302Z,100538.57
2023-04-30T11:04:06.307Z,100541.09
2023-04-30T11:06:55.762Z,100536.97
2023-04-30T11:09:50.003Z,100527.67
2023-04-30T11:12:28.556Z,100537.49
2023-04-30T11:15:26.059Z,100539.88
2023-04-30T11:17:59.068Z,100530.84
2023-04-30T11:20:27.696Z,100532.84
2023-04-30T11:23:17.445Z,100534.57
2023-04-30T11:25:57.882Z,100541.37
2023-04-30T11:28:27.384Z,100537.94
2023-04-30T11:30:55.811Z,100536.63
2023-04-30T11:33:27.086Z,100540.24
2023-04-30T11:35:56.761Z,100540.42
2023-04-30T11:38:30.048Z,100540.88
2023-04-30T11:40:58.106Z,100539.38
2023-04-30T11:43:31.187Z,100541.13
2023-04-30T11:46:05.234Z,100537.05
2023-04-30T11:48:37.456Z,100537.20
2023-04-30T11:51:22.402Z,100539.31
2023-04-30T11:53:52.163Z,100537.30
2023-04-30T11:56:22.071Z,100540.11
2023-04-30T11:58:51.647Z,100541.39
2023-04-30T12:01:21.396Z,100541.62
2023-04-30T12:03:50.970Z,100547.70
2023-04-30T12:06:26.508Z,100540.91
2023-04-30T12:08:58.599Z,100538.73
2023-04-30T12:11:31.205Z,100538.98
2023-04-30T12:14:10.630Z,100541.02
2023-04-30T12:16:45.541Z,100541.35
2023-04-30T12:19:13.113Z,100544.02
2023-04-30T12:21:44.527Z,100542.71
2023-04-30T12:24:16.706Z,100538.02
2023-04-30T12:26:45.767Z,100536.80
2023-04-30T12:29:17.083Z,100529.41
2023-04-30T12:31:45.692Z,100533.33
2023-04-30T12:34:17.813Z,100534.77
2023-04-30T12:36:45.386Z,100530.92
2023-04-30T12:39:21.506Z,100531.05
2023-04-30T12:41:49.876Z,100527.23
2023-04-30T12:44:18.232Z,100530.90
2023-04-30T12:46:48.201Z,100532.10
2023-04-30T12:49:27.132Z,100533.02
2023-04-30T12:52:08.805Z,100526.05
2023-04-30T12:54:38.119Z,100527.48
2023-04-30T12:57:09.079Z,100523.34
2023-04-30T12:59:38.601Z,100523.13
2023-04-30T13:02:11.360Z,100520.21
2023-04-30T13:04:40.270Z,100521.48
2023-04-30T13:07:08.190Z,100522.60
2023-04-30T13:09:37.837Z,100516.52
2023-04-30T13:12:06.357Z,100516.04
2023-04-30T13:14:34.699Z,100522.48
2023-04-30T13:17:05.820Z,100528.57
2023-04-30T13:19:34.793Z,100530.98
2023-04-30T13:22:02.541Z,100531.23
2023-04-30T13:24:31.372Z,100536.79
2023-04-30T13:26:59.855Z,100537.87
2023-04-30T13:29:27.518Z,100535.41
2023-04-30T13:31:55.030Z,100533.95
2023-04-30T13:34:22.694Z,100525.34
2023-04-30T13:36:51.956Z,100530.33
2023-04-30T13:39:19.920Z,100532.23
2023-04-30T13:41:49.197Z,100534.58
2023-04-30T13:44:19.052Z,100533.20
2023-04-30T13:46:46.690Z,100533.03
2023-04-30T13:49:14.389Z,100529.36
2023-04-30T13:51:41.928Z,100527.34
2023-04-30T13:54:30.658Z,100523.67
2023-04-30T13:57:22.132Z,100520.95
2023-04-30T14:00:02.408Z,100524.80
2023-04-30T14:02:31.310Z,100527.31
2023-04-30T14:05:05.797Z,100523.36
2023-04-30T14:07:34.188Z,100518.59
2023-04-30T14:10:07.552Z,100514.16
2023-04-30T14:12:35.289Z,100519.84
2023-04-30T14:15:03.404Z,100520.77
2023-04-30T14:17:31.477Z,100522.67
2023-04-30T14:19:59.094Z,100516.83
2023-04-30T14:22:26.644Z,100515.48
2023-04-30T14:24:54.249Z,100512.73
2023-04-30T14:27:22.554Z,100513.05
2023-04-30T14:29:50.045Z,100513.61
2023-04-30T14:32:17.604Z,100516.47
2023-04-30T14:34:45.238Z,100520.46
2023-04-30T14:37:13.721Z,100524.42
2023-04-30T14:39:41.307Z,100519.07
2023-04-30T14:42:09.166Z,100519.50
2023-04-30T14:44:38.132Z,100520.41
2023-04-30T14:47:05.591Z,100521.68
2023-04-30T14:49:33.204Z,100519.86
2023-04-30T14:52:00.847Z,100517.14
2023-04-30T14:54:28.358Z,100520.51
2023-04-30T14:56:56.130Z,100520.50
2023-04-30T14:59:23.738Z,100520.97
2023-04-30T15:01:51.439Z,100522.73
2023-04-30T15:04:19.340Z,100524.17
2023-04-30T15:06:47.448Z,100526.45
2023-04-30T15:09:15.731Z,100526.02
2023-04-30T15:11:43.253Z,100522.95
2023-04-30T15:14:11.697Z,100528.21
2023-04-30T15:16:42.052Z,100526.14
2023-04-30T15:19:09.729Z,100524.61
2023-04-30T15:21:37.289Z,100522.20
2023-04-30T15:24:05.000Z,100528.98
2023-04-30T15:26:32.967Z,100521.50
2023-04-30T15:29:00.549Z,100520.39
2023-04-30T15:31:28.126Z,100524.16
2023-04-30T15:33:55.701Z,100522.77
2023-04-30T15:36:23.338Z,100521.36
2023-04-30T15:38:51.989Z,100519.01
2023-04-30T15:41:19.552Z,100519.71
2023-04-30T15:43:47.009Z,100523.86
2023-04-30T15:46:14.556Z,100527.75
2023-04-30T15:48:42.076Z,100526.92
2023-04-30T15:51:09.656Z,100523.65
2023-04-30T15:53:37.214Z,100520.60
2023-04-30T15:56:04.976Z,100518.54
2023-04-30T15:58:32.446Z,100516.48
2023-04-30T16:01:01.163Z,100516.54
2023-04-30T16:03:28.702Z,100517.49
2023-04-30T16:06:00.947Z,100515.11
2023-04-30T16:08:29.609Z,100514.66
2023-04-30T16:10:57.170Z,100514.02
2023-04-30T16:13:24.635Z,100516.45
2023-04-30T16:15:52.493Z,100520.60
2023-04-30T16:18:20.073Z,100520.65
2023-04-30T16:20:48.966Z,100518.94
2023-04-30T16:23:16.548Z,100516.70
2023-04-30T16:25:44.126Z,100519.44
2023-04-30T16:28:11.573Z,100518.80
2023-04-30T16:30:39.217Z,100516.46
2023-04-30T16:33:07.619Z,100517.23
2023-04-30T16:35:35.178Z,100522.29
2023-04-30T16:38:02.702Z,100522.61
2023-04-30T16:40:31.108Z,100517.51
2023-04-30T16:42:59.603Z,100515.60
2023-04-30T16:45:27.243Z,100515.36
2023-04-30T16:47:54.816Z,100513.77
2023-04-30T16:50:24.189Z,100515.80
2023-04-30T16:52:51.687Z,100519.21
2023-04-30T16:55:19.759Z,100519.93
2023-04-30T16:57:47.368Z,100523.02
2023-04-30T17:00:16.741Z,100520.42
2023-04-30T17:02:53.706Z,100517.25
2023-04-30T17:05:21.556Z,100520.77
2023-04-30T17:07:49.292Z,100523.04
2023-04-30T17:10:20.309Z,100522.82
2023-04-30T17:12:48.246Z,100517.45
2023-04-30T17:15:15.780Z,100515.37
2023-04-30T17:17:43.648Z,100515.56
2023-04-30T17:20:12.330Z,100519.48
2023-04-30T17:22:40.112Z,100524.81
2023-04-30T17:25:08.017Z,100523.69
2023-04-30T17:27:35.978Z,100527.86
2023-04-30T17:30:08.225Z,100532.05
2023-04-30T17:32:35.810Z,100533.15
2023-04-30T17:35:05.928Z,100538.19
2023-04-30T17:37:33.477Z,100543.63
2023-04-30T17:40:01.326Z,100546.02
2023-04-30T17:42:30.487Z,100551.60
2023-04-30T17:44:58.094Z,100551.21
2023-04-30T17:47:25.650Z,100550.84
2023-04-30T17:49:53.445Z,100557.42
2023-04-30T17:52:21.214Z,100555.02
2023-04-30T17:54:48.771Z,100569.55
2023-04-30T17:57:16.419Z,100568.81
2023-04-30T17:59:44.060Z,100573.86
2023-04-30T18:02:11.598Z,100578.69
2023-04-30T18:04:39.101Z,100581.94
2023-04-30T18:07:08.103Z,100588.66
2023-04-30T18:09:36.089Z,100592.10
2023-04-30T18:12:03.766Z,100595.13
2023-04-30T18:14:32.118Z,100596.10
2023-04-30T18:16:59.534Z,100604.64
2023-04-30T18:19:26.999Z,100606.61
2023-04-30T18:21:56.733Z,100611.55
2023-04-30T18:24:29.751Z,100614.59
2023-04-30T18:26:57.243Z,100614.93
2023-04-30T18:29:24.748Z,100619.48
2023-04-30T18:31:52.314Z,100624.84
2023-04-30T18:34:21.339Z,100630.50
2023-04-30T18:36:49.878Z,100635.90
2023-04-30T18:39:17.472Z,100637.45
2023-04-30T18:41:45.011Z,100641.35
2023-04-30T18:44:13.639Z,100645.77
2023-04-30T18:46:42.623Z,100642.51
2023-04-30T18:49:10.145Z,100644.77
2023-04-30T18:51:38.031Z,100647.35
2023-04-30T18:54:05.737Z,100653.75
2023-04-30T18:56:33.256Z,100654.58
2023-04-30T18:59:00.747Z,100658.14
2023-04-30T19:01:28.792Z,100658.72
2023-04-30T19:03:56.420Z,100666.64
2023-04-30T19:06:24.090Z,100668.61
2023-04-30T19:08:51.592Z,100671.80
2023-04-30T19:11:19.944Z,100678.95
2023-04-30T19:13:47.478Z,100685.88
2023-04-30T19:16:14.990Z,100684.98
2023-04-30T19:18:42.486Z,100685.48
2023-04-30T19:21:12.834Z,100687.55
2023-04-30T19:23:41.168Z,100691.15
2023-04-30T19:26:08.776Z,100696.68
2023-04-30T19:28:36.435Z,100695.61
2023-04-30T19:31:04.045Z,100699.23
2023-04-30T19:33:37.980Z,100700.00
2023-04-30T19:36:05.693Z,100699.58
2023-04-30T19:38:33.168Z,100700.52
2023-04-30T19:41:01.254Z,100703.74
2023-04-30T19:43:28.693Z,100706.25
2023-04-30T19:45:57.843Z,100707.02
2023-04-30T19:48:26.692Z,100708.34
2023-04-30T19:50:54.924Z,100713.96
2023-04-30T19:53:24.734Z,100709.88
2023-04-30T19:55:55.761Z,100713.77
2023-04-30T19:58:24.112Z,100715.05
2023-04-30T20:00:51.649Z,100716.14
2023-04-30T20:03:20.501Z,100717.60
2023-04-30T20:05:48.155Z,100718.16
2023-04-30T20:08:17.648Z,100725.68
2023-04-30T20:10:47.125Z,100723.98
2023-04-30T20:13:16.952Z,100722.98
2023-04-30T20:15:44.436Z,100724.41
2023-04-30T20:18:12.659Z,100730.18
2023-04-30T20:20:40.336Z,100731.09
2023-04-30T20:23:16.759Z,100737.73
2023-04-30T20:25:45.991Z,100739.86
2023-04-30T20:28:18.879Z,100740.10
2023-04-30T20:30:49.049Z,100742.41
2023-04-30T20:33:16.641Z,100746.09
2023-04-30T20:35:48.275Z,100748.05
2023-04-30T20:38:19.550Z,100746.52
2023-04-30T20:40:47.277Z,100749.00
2023-04-30T20:43:17.225Z,100754.05
2023-04-30T20:45:44.889Z,100748.71
2023-04-30T20:48:12.761Z,100748.55
2023-04-30T20:50:41.294Z,100750.64
2023-04-30T20:53:11.012Z,100751.00
2023-04-30T20:55:39.028Z,100752.95
2023-04-30T20:58:08.813Z,100760.77
2023-04-30T21:00:36.380Z,100762.87
2023-04-30T21:03:04.329Z,100764.27
2023-04-30T21:05:32.402Z,100762.04
2023-04-30T21:08:01.942Z,100764.83
2023-04-30T21:10:36.210Z,100768.66
2023-04-30T21:13:05.959Z,100772.13
2023-04-30T21:15:35.251Z,100776.30
2023-04-30T21:18:03.607Z,100780.98
2023-04-30T21:20:32.084Z,100779.61
2023-04-30T21:23:01.686Z,100783.61
2023-04-30T21:25:29.384Z,100786.90
2023-04-30T21:27:57.069Z,100787.07
2023-04-30T21:30:28.254Z,100786.73
2023-04-30T21:32:58.972Z,100790.03
2023-04-30T21:35:32.733Z,100795.05
2023-04-30T21:38:00.657Z,100793.66
2023-04-30T21:40:32.275Z,100793.48
2023-04-30T21:43:01.313Z,100797.48
2023-04-30T21:45:29.863Z,100801.11
2023-04-30T21:47:57.481Z,100803.00
2023-04-30T21:50:25.143Z,100810.61
2023-04-30T21:52:52.791Z,100811.98
2023-04-30T21:55:20.356Z,100810.25
2023-04-30T21:57:50.825Z,100811.98
2023-04-30T22:00:18.699Z,100812.15
2023-04-30T22:02:47.527Z,100807.48
2023-04-30T22:05:15.180Z,100808.33
2023-04-30T22:07:42.667Z,100806.24
2023-04-30T22:10:10.689Z,100809.52
2023-04-30T22:12:38.564Z,100809.52
2023-04-30T22:15:07.084Z,100813.65
2023-04-30T22:17:34.614Z,100814.34
2023-04-30T22:20:02.061Z,100814.51
2023-04-30T22:22:29.630Z,100821.05
2023-04-30T22:24:57.186Z,100817.23
2023-04-30T22:27:24.847Z,100822.40
2023-04-30T22:29:52.632Z,100827.23
2023-04-30T22:32:20.220Z,100828.42
2023-04-30T22:34:48.623Z,100829.60
2023-04-30T22:37:16.513Z,100829.59
2023-04-30T22:39:44.044Z,100826.98
2023-04-30T22:42:11.607Z,100827.83
2023-04-30T22:44:39.161Z,100827.28
2023-04-30T22:47:06.846Z,100830.56
2023-04-30T22:49:35.607Z,100829.86
2023-04-30T22:52:04.439Z,100829.15
2023-04-30T22:54:32.044Z,100825.85
2023-04-30T22:56:59.701Z,100828.42
2023-04-30T22:59:27.176Z,100830.80
2023-04-30T23:01:54.749Z,100830.10
2023-04-30T23:04:22.469Z,100834.39
2023-04-30T23:06:50.076Z,100832.95
2023-04-30T23:09:17.638Z,100832.20
2023-04-30T23:11:45.169Z,100830.60
2023-04-30T23:14:12.890Z,100830.72
2023-04-30T23:16:42.905Z,100830.32
2023-04-30T23:19:10.598Z,100829.58
2023-04-30T23:21:38.465Z,100829.02
2023-04-30T23:24:05.997Z,100835.36
2023-04-30T23:26:33.506Z,100839.80
2023-04-30T23:29:01.545Z,100835.45
2023-04-30T23:31:29.233Z,100833.83
2023-04-30T23:33:56.761Z,100837.23
2023-04-30T23:36:24.395Z,100835.80
2023-04-30T23:38:51.957Z,100836.80
2023-04-30T23:41:19.556Z,100837.97
2023-04-30T23:43:47.044Z,100836.05
2023-04-30T23:46:16.461Z,100838.95
2023-04-30T23:48:44.054Z,100839.09
2023-04-30T23:51:11.645Z,100844.59
2023-04-30T23:53:39.632Z,100845.74
2023-04-30T23:56:08.507Z,100844.93
2023-04-30T23:58:36.503Z,100848.58
